Lindsborg, Kansas
Current Conditions -  °F | °C
As of 6:53 PM on Saturday 22 Nov 2014 (Local Time) from KSLN Reporting Station
Overcast Overcast  
Wind Chill: 60°   Ceiling: 1400
Heat Index: 60°   Visibility: 10mi
Dew Point: 53°   Wind: 20mph
Humidity: 78%   Direction: 180°S
Pressure: 29.65"   Gusts: 32mph
Location:  38.57°N, 97.67°W
Report Text: KSLN 230053Z 18017G28KT 10SM OVC014 16/12 A2965 RMK AO2 PK WND 17029/0029 SLP038 T01560117
Loading
Personal Weather Stations






























Interactive Weather Map New forecast layout! Learn more

10-Day Weather Forecast

Advertisements
Track Severe Weather on mobile